sensor_id;sensor_type;location;lat;lon;timestamp;temperature;humidity
6164;DHT22;3114;48.362;10.994;2023-03-09T00:01:17;10.50;99.90
6164;DHT22;3114;48.362;10.994;2023-03-09T00:03:44;10.60;99.90
6164;DHT22;3114;48.362;10.994;2023-03-09T00:06:11;10.60;99.90
6164;DHT22;3114;48.362;10.994;2023-03-09T00:08:38;10.60;99.90
6164;DHT22;3114;48.362;10.994;2023-03-09T00:11:07;10.70;99.90
6164;DHT22;3114;48.362;10.994;2023-03-09T00:13:35;10.70;99.90
6164;DHT22;3114;48.362;10.994;2023-03-09T00:16:14;10.60;99.90
6164;DHT22;3114;48.362;10.994;2023-03-09T00:18:41;10.60;99.90
6164;DHT22;3114;48.362;10.994;2023-03-09T00:21:09;10.60;99.90
6164;DHT22;3114;48.362;10.994;2023-03-09T00:23:40;10.60;99.90
6164;DHT22;3114;48.362;10.994;2023-03-09T00:26:08;10.60;99.90
6164;DHT22;3114;48.362;10.994;2023-03-09T00:28:35;10.70;99.90
6164;DHT22;3114;48.362;10.994;2023-03-09T00:31:04;10.60;99.90
6164;DHT22;3114;48.362;10.994;2023-03-09T00:33:32;10.70;99.90
6164;DHT22;3114;48.362;10.994;2023-03-09T00:35:58;10.70;99.90
6164;DHT22;3114;48.362;10.994;2023-03-09T00:38:25;10.70;99.90
6164;DHT22;3114;48.362;10.994;2023-03-09T00:40:52;10.70;99.90
6164;DHT22;3114;48.362;10.994;2023-03-09T00:43:20;10.70;99.90
6164;DHT22;3114;48.362;10.994;2023-03-09T00:45:47;10.60;99.90
6164;DHT22;3114;48.362;10.994;2023-03-09T00:48:14;10.60;99.90
6164;DHT22;3114;48.362;10.994;2023-03-09T00:50:41;10.50;99.90
6164;DHT22;3114;48.362;10.994;2023-03-09T00:53:08;10.60;99.90
6164;DHT22;3114;48.362;10.994;2023-03-09T00:55:35;10.60;99.90
6164;DHT22;3114;48.362;10.994;2023-03-09T00:58:01;10.60;99.90
6164;DHT22;3114;48.362;10.994;2023-03-09T01:00:31;10.60;99.90
6164;DHT22;3114;48.362;10.994;2023-03-09T01:02:59;10.60;99.90
6164;DHT22;3114;48.362;10.994;2023-03-09T01:05:26;10.70;99.90
6164;DHT22;3114;48.362;10.994;2023-03-09T01:07:53;10.60;99.90
6164;DHT22;3114;48.362;10.994;2023-03-09T01:10:20;10.50;99.90
6164;DHT22;3114;48.362;10.994;2023-03-09T01:12:47;10.50;99.90
6164;DHT22;3114;48.362;10.994;2023-03-09T01:15:14;10.50;99.90
6164;DHT22;3114;48.362;10.994;2023-03-09T01:17:43;10.50;99.90
6164;DHT22;3114;48.362;10.994;2023-03-09T01:20:10;10.50;99.90
6164;DHT22;3114;48.362;10.994;2023-03-09T01:22:38;10.50;99.90
6164;DHT22;3114;48.362;10.994;2023-03-09T01:25:05;10.40;99.90
6164;DHT22;3114;48.362;10.994;2023-03-09T01:27:32;10.50;99.90
6164;DHT22;3114;48.362;10.994;2023-03-09T01:29:59;10.40;99.90
6164;DHT22;3114;48.362;10.994;2023-03-09T01:32:26;10.40;99.90
6164;DHT22;3114;48.362;10.994;2023-03-09T01:34:54;10.40;99.90
6164;DHT22;3114;48.362;10.994;2023-03-09T01:37:21;10.40;99.90
6164;DHT22;3114;48.362;10.994;2023-03-09T01:39:48;10.30;99.90
6164;DHT22;3114;48.362;10.994;2023-03-09T01:42:15;10.30;99.90
6164;DHT22;3114;48.362;10.994;2023-03-09T01:44:42;10.30;99.90
6164;DHT22;3114;48.362;10.994;2023-03-09T01:47:09;10.40;99.90
6164;DHT22;3114;48.362;10.994;2023-03-09T01:49:39;10.50;99.90
6164;DHT22;3114;48.362;10.994;2023-03-09T01:52:12;10.50;99.90
6164;DHT22;3114;48.362;10.994;2023-03-09T01:54:45;10.50;99.90
6164;DHT22;3114;48.362;10.994;2023-03-09T01:57:19;10.50;99.90
6164;DHT22;3114;48.362;10.994;2023-03-09T01:59:49;10.50;99.90
6164;DHT22;3114;48.362;10.994;2023-03-09T02:02:18;10.40;99.90
6164;DHT22;3114;48.362;10.994;2023-03-09T02:04:50;10.30;99.90
6164;DHT22;3114;48.362;10.994;2023-03-09T02:07:22;10.30;99.90
6164;DHT22;3114;48.362;10.994;2023-03-09T02:09:53;10.40;99.90
6164;DHT22;3114;48.362;10.994;2023-03-09T02:12:22;10.50;99.90
6164;DHT22;3114;48.362;10.994;2023-03-09T02:14:49;10.50;99.90
6164;DHT22;3114;48.362;10.994;2023-03-09T02:17:16;10.10;99.90
6164;DHT22;3114;48.362;10.994;2023-03-09T02:19:53;9.80;99.90
6164;DHT22;3114;48.362;10.994;2023-03-09T02:22:23;9.90;99.90
6164;DHT22;3114;48.362;10.994;2023-03-09T02:24:57;9.80;99.90
6164;DHT22;3114;48.362;10.994;2023-03-09T02:27:27;9.50;99.90
6164;DHT22;3114;48.362;10.994;2023-03-09T02:29:55;9.30;99.90
6164;DHT22;3114;48.362;10.994;2023-03-09T02:32:22;9.00;99.90
6164;DHT22;3114;48.362;10.994;2023-03-09T02:34:49;8.60;99.90
6164;DHT22;3114;48.362;10.994;2023-03-09T02:37:28;8.50;99.90
6164;DHT22;3114;48.362;10.994;2023-03-09T02:39:59;8.60;99.90
6164;DHT22;3114;48.362;10.994;2023-03-09T02:42:28;8.80;99.90
6164;DHT22;3114;48.362;10.994;2023-03-09T02:44:55;8.90;99.90
6164;DHT22;3114;48.362;10.994;2023-03-09T02:47:23;9.00;99.90
6164;DHT22;3114;48.362;10.994;2023-03-09T02:49:50;9.10;99.90
6164;DHT22;3114;48.362;10.994;2023-03-09T02:52:17;9.10;99.90
6164;DHT22;3114;48.362;10.994;2023-03-09T02:54:44;9.10;99.90
6164;DHT22;3114;48.362;10.994;2023-03-09T02:57:11;9.10;99.90
6164;DHT22;3114;48.362;10.994;2023-03-09T02:59:39;9.10;99.90
6164;DHT22;3114;48.362;10.994;2023-03-09T03:02:06;9.20;99.90
6164;DHT22;3114;48.362;10.994;2023-03-09T03:04:34;9.20;99.90
6164;DHT22;3114;48.362;10.994;2023-03-09T03:07:01;9.20;99.90
6164;DHT22;3114;48.362;10.994;2023-03-09T03:09:28;9.30;99.90
6164;DHT22;3114;48.362;10.994;2023-03-09T03:11:56;9.20;99.90
6164;DHT22;3114;48.362;10.994;2023-03-09T03:14:23;9.30;99.90
6164;DHT22;3114;48.362;10.994;2023-03-09T03:16:51;9.30;99.90
6164;DHT22;3114;48.362;10.994;2023-03-09T03:19:18;9.30;99.90
6164;DHT22;3114;48.362;10.994;2023-03-09T03:21:45;9.30;99.90
6164;DHT22;3114;48.362;10.994;2023-03-09T03:24:13;9.30;99.90
6164;DHT22;3114;48.362;10.994;2023-03-09T03:26:40;9.30;99.90
6164;DHT22;3114;48.362;10.994;2023-03-09T03:29:07;9.20;99.90
6164;DHT22;3114;48.362;10.994;2023-03-09T03:31:34;9.20;99.90
6164;DHT22;3114;48.362;10.994;2023-03-09T03:34:03;9.20;99.90
6164;DHT22;3114;48.362;10.994;2023-03-09T03:36:29;9.10;99.90
6164;DHT22;3114;48.362;10.994;2023-03-09T03:38:56;9.10;99.90
6164;DHT22;3114;48.362;10.994;2023-03-09T03:41:23;9.00;99.90
6164;DHT22;3114;48.362;10.994;2023-03-09T03:43:50;8.90;99.90
6164;DHT22;3114;48.362;10.994;2023-03-09T03:46:17;8.90;99.90
6164;DHT22;3114;48.362;10.994;2023-03-09T03:48:44;8.80;99.90
6164;DHT22;3114;48.362;10.994;2023-03-09T03:51:12;8.90;99.90
6164;DHT22;3114;48.362;10.994;2023-03-09T03:53:40;8.90;99.90
6164;DHT22;3114;48.362;10.994;2023-03-09T03:56:08;8.80;99.90
6164;DHT22;3114;48.362;10.994;2023-03-09T03:58:35;8.80;99.90
6164;DHT22;3114;48.362;10.994;2023-03-09T04:01:02;8.80;99.90
6164;DHT22;3114;48.362;10.994;2023-03-09T04:03:29;8.80;99.90
6164;DHT22;3114;48.362;10.994;2023-03-09T04:05:56;8.70;99.90
6164;DHT22;3114;48.362;10.994;2023-03-09T04:08:25;8.70;99.90
6164;DHT22;3114;48.362;10.994;2023-03-09T04:10:51;8.80;99.90
6164;DHT22;3114;48.362;10.994;2023-03-09T04:13:18;8.80;99.90
6164;DHT22;3114;48.362;10.994;2023-03-09T04:15:45;8.80;99.90
6164;DHT22;3114;48.362;10.994;2023-03-09T04:18:12;8.60;99.90
6164;DHT22;3114;48.362;10.994;2023-03-09T04:20:40;8.60;99.90
6164;DHT22;3114;48.362;10.994;2023-03-09T04:23:08;8.60;99.90
6164;DHT22;3114;48.362;10.994;2023-03-09T04:25:36;8.70;99.90
6164;DHT22;3114;48.362;10.994;2023-03-09T04:28:03;8.80;99.90
6164;DHT22;3114;48.362;10.994;2023-03-09T04:30:30;8.80;99.90
6164;DHT22;3114;48.362;10.994;2023-03-09T04:32:57;8.80;99.90
6164;DHT22;3114;48.362;10.994;2023-03-09T04:35:24;8.90;99.90
6164;DHT22;3114;48.362;10.994;2023-03-09T04:37:51;8.90;99.90
6164;DHT22;3114;48.362;10.994;2023-03-09T04:40:18;8.90;99.90
6164;DHT22;3114;48.362;10.994;2023-03-09T04:42:47;8.90;99.90
6164;DHT22;3114;48.362;10.994;2023-03-09T04:45:14;8.90;99.90
6164;DHT22;3114;48.362;10.994;2023-03-09T04:47:40;8.90;99.90
6164;DHT22;3114;48.362;10.994;2023-03-09T04:50:09;9.00;99.90
6164;DHT22;3114;48.362;10.994;2023-03-09T04:52:36;8.90;99.90
6164;DHT22;3114;48.362;10.994;2023-03-09T04:55:03;9.00;99.90
6164;DHT22;3114;48.362;10.994;2023-03-09T04:57:30;9.00;99.90
6164;DHT22;3114;48.362;10.994;2023-03-09T04:59:58;9.00;99.90
6164;DHT22;3114;48.362;10.994;2023-03-09T05:02:25;9.00;99.90
6164;DHT22;3114;48.362;10.994;2023-03-09T05:04:54;9.10;99.90
6164;DHT22;3114;48.362;10.994;2023-03-09T05:07:21;9.10;99.90
6164;DHT22;3114;48.362;10.994;2023-03-09T05:09:48;9.10;99.90
6164;DHT22;3114;48.362;10.994;2023-03-09T05:12:14;9.20;99.90
6164;DHT22;3114;48.362;10.994;2023-03-09T05:14:41;9.20;99.90
6164;DHT22;3114;48.362;10.994;2023-03-09T05:17:10;9.10;99.90
6164;DHT22;3114;48.362;10.994;2023-03-09T05:19:36;9.10;99.90
6164;DHT22;3114;48.362;10.994;2023-03-09T05:22:03;9.10;99.90
6164;DHT22;3114;48.362;10.994;2023-03-09T05:24:31;9.10;99.90
6164;DHT22;3114;48.362;10.994;2023-03-09T05:26:58;9.10;99.90
6164;DHT22;3114;48.362;10.994;2023-03-09T05:29:25;9.10;99.90
6164;DHT22;3114;48.362;10.994;2023-03-09T05:31:51;9.10;99.90
6164;DHT22;3114;48.362;10.994;2023-03-09T05:34:21;9.10;99.90
6164;DHT22;3114;48.362;10.994;2023-03-09T05:36:48;9.00;99.90
6164;DHT22;3114;48.362;10.994;2023-03-09T05:39:15;9.10;99.90
6164;DHT22;3114;48.362;10.994;2023-03-09T05:41:42;9.10;99.90
6164;DHT22;3114;48.362;10.994;2023-03-09T05:44:09;9.10;99.90
6164;DHT22;3114;48.362;10.994;2023-03-09T05:46:36;9.10;99.90
6164;DHT22;3114;48.362;10.994;2023-03-09T05:49:03;9.10;99.90
6164;DHT22;3114;48.362;10.994;2023-03-09T05:51:31;9.00;99.90
6164;DHT22;3114;48.362;10.994;2023-03-09T05:53:58;9.10;99.90
6164;DHT22;3114;48.362;10.994;2023-03-09T05:56:25;9.10;99.90
6164;DHT22;3114;48.362;10.994;2023-03-09T05:58:52;9.00;99.90
6164;DHT22;3114;48.362;10.994;2023-03-09T06:01:22;9.00;99.90
6164;DHT22;3114;48.362;10.994;2023-03-09T06:03:50;9.00;99.90
6164;DHT22;3114;48.362;10.994;2023-03-09T06:06:17;9.00;99.90
6164;DHT22;3114;48.362;10.994;2023-03-09T06:08:46;9.00;99.90
6164;DHT22;3114;48.362;10.994;2023-03-09T06:11:13;8.90;99.90
6164;DHT22;3114;48.362;10.994;2023-03-09T06:13:41;8.90;99.90
6164;DHT22;3114;48.362;10.994;2023-03-09T06:16:12;8.90;99.90
6164;DHT22;3114;48.362;10.994;2023-03-09T06:18:39;8.90;99.90
6164;DHT22;3114;48.362;10.994;2023-03-09T06:21:07;8.80;99.90
6164;DHT22;3114;48.362;10.994;2023-03-09T06:23:35;8.90;99.90
6164;DHT22;3114;48.362;10.994;2023-03-09T06:26:04;8.80;99.90
6164;DHT22;3114;48.362;10.994;2023-03-09T06:28:32;8.90;99.90
6164;DHT22;3114;48.362;10.994;2023-03-09T06:30:59;8.80;99.90
6164;DHT22;3114;48.362;10.994;2023-03-09T06:33:31;8.80;99.90
6164;DHT22;3114;48.362;10.994;2023-03-09T06:35:59;8.90;99.90
6164;DHT22;3114;48.362;10.994;2023-03-09T06:38:26;8.80;99.90
6164;DHT22;3114;48.362;10.994;2023-03-09T06:40:53;8.90;99.90
6164;DHT22;3114;48.362;10.994;2023-03-09T06:43:21;8.90;99.90
6164;DHT22;3114;48.362;10.994;2023-03-09T06:45:49;8.90;99.90
6164;DHT22;3114;48.362;10.994;2023-03-09T06:48:16;9.00;99.90
6164;DHT22;3114;48.362;10.994;2023-03-09T06:50:42;8.90;99.90
6164;DHT22;3114;48.362;10.994;2023-03-09T06:53:10;9.00;99.90
6164;DHT22;3114;48.362;10.994;2023-03-09T06:55:37;9.10;99.90
6164;DHT22;3114;48.362;10.994;2023-03-09T06:58:05;9.20;99.90
6164;DHT22;3114;48.362;10.994;2023-03-09T07:00:34;9.20;99.90
6164;DHT22;3114;48.362;10.994;2023-03-09T07:03:03;9.20;99.90
6164;DHT22;3114;48.362;10.994;2023-03-09T07:05:30;9.20;99.90
6164;DHT22;3114;48.362;10.994;2023-03-09T07:07:57;9.20;99.90
6164;DHT22;3114;48.362;10.994;2023-03-09T07:10:24;9.20;99.90
6164;DHT22;3114;48.362;10.994;2023-03-09T07:12:51;9.20;99.90
6164;DHT22;3114;48.362;10.994;2023-03-09T07:15:18;9.20;99.90
6164;DHT22;3114;48.362;10.994;2023-03-09T07:17:46;9.10;99.90
6164;DHT22;3114;48.362;10.994;2023-03-09T07:20:13;9.20;99.90
6164;DHT22;3114;48.362;10.994;2023-03-09T07:22:40;9.30;99.90
6164;DHT22;3114;48.362;10.994;2023-03-09T07:25:07;9.30;99.90
6164;DHT22;3114;48.362;10.994;2023-03-09T07:27:34;9.20;99.90
6164;DHT22;3114;48.362;10.994;2023-03-09T07:30:01;9.20;99.90
6164;DHT22;3114;48.362;10.994;2023-03-09T07:32:30;9.30;99.90
6164;DHT22;3114;48.362;10.994;2023-03-09T07:34:58;9.40;99.90
6164;DHT22;3114;48.362;10.994;2023-03-09T07:37:25;9.40;99.90
6164;DHT22;3114;48.362;10.994;2023-03-09T07:39:51;9.50;99.90
6164;DHT22;3114;48.362;10.994;2023-03-09T07:42:18;9.50;99.90
6164;DHT22;3114;48.362;10.994;2023-03-09T07:44:45;9.40;99.90
6164;DHT22;3114;48.362;10.994;2023-03-09T07:47:12;9.50;99.90
6164;DHT22;3114;48.362;10.994;2023-03-09T07:49:39;9.50;99.90
6164;DHT22;3114;48.362;10.994;2023-03-09T07:52:08;9.40;99.90
6164;DHT22;3114;48.362;10.994;2023-03-09T07:54:34;9.50;99.90
6164;DHT22;3114;48.362;10.994;2023-03-09T07:57:03;9.50;99.90
6164;DHT22;3114;48.362;10.994;2023-03-09T07:59:30;9.50;99.90
6164;DHT22;3114;48.362;10.994;2023-03-09T08:01:56;9.60;99.90
6164;DHT22;3114;48.362;10.994;2023-03-09T08:04:23;9.60;99.90
6164;DHT22;3114;48.362;10.994;2023-03-09T08:06:51;9.60;99.90
6164;DHT22;3114;48.362;10.994;2023-03-09T08:09:19;9.70;99.90
6164;DHT22;3114;48.362;10.994;2023-03-09T08:11:47;9.70;99.90
6164;DHT22;3114;48.362;10.994;2023-03-09T08:14:14;9.70;99.90
6164;DHT22;3114;48.362;10.994;2023-03-09T08:16:41;9.60;99.90
6164;DHT22;3114;48.362;10.994;2023-03-09T08:19:08;9.60;99.90
6164;DHT22;3114;48.362;10.994;2023-03-09T08:21:35;9.70;99.90
6164;DHT22;3114;48.362;10.994;2023-03-09T08:24:03;9.90;99.90
6164;DHT22;3114;48.362;10.994;2023-03-09T08:26:31;10.00;99.90
6164;DHT22;3114;48.362;10.994;2023-03-09T08:28:58;10.00;99.90
6164;DHT22;3114;48.362;10.994;2023-03-09T08:31:25;10.00;99.90
6164;DHT22;3114;48.362;10.994;2023-03-09T08:33:52;10.00;99.90
6164;DHT22;3114;48.362;10.994;2023-03-09T08:36:19;10.10;99.90
6164;DHT22;3114;48.362;10.994;2023-03-09T08:38:48;10.10;99.90
6164;DHT22;3114;48.362;10.994;2023-03-09T08:41:15;10.20;99.90
6164;DHT22;3114;48.362;10.994;2023-03-09T08:43:44;10.30;99.90
6164;DHT22;3114;48.362;10.994;2023-03-09T08:46:12;10.20;99.90
6164;DHT22;3114;48.362;10.994;2023-03-09T08:48:39;10.30;99.90
6164;DHT22;3114;48.362;10.994;2023-03-09T08:51:08;10.30;99.90
6164;DHT22;3114;48.362;10.994;2023-03-09T08:53:36;10.20;99.90
6164;DHT22;3114;48.362;10.994;2023-03-09T08:56:05;10.30;99.90
6164;DHT22;3114;48.362;10.994;2023-03-09T08:58:32;10.30;99.90
6164;DHT22;3114;48.362;10.994;2023-03-09T09:01:01;10.30;99.90
6164;DHT22;3114;48.362;10.994;2023-03-09T09:03:29;10.20;99.90
6164;DHT22;3114;48.362;10.994;2023-03-09T09:05:56;10.30;99.90
6164;DHT22;3114;48.362;10.994;2023-03-09T09:08:28;10.30;99.90
6164;DHT22;3114;48.362;10.994;2023-03-09T09:10:55;10.30;99.90
6164;DHT22;3114;48.362;10.994;2023-03-09T09:13:22;10.20;99.90
6164;DHT22;3114;48.362;10.994;2023-03-09T09:15:52;10.30;99.90
6164;DHT22;3114;48.362;10.994;2023-03-09T09:18:21;10.30;99.90
6164;DHT22;3114;48.362;10.994;2023-03-09T09:20:48;10.30;99.90
6164;DHT22;3114;48.362;10.994;2023-03-09T09:23:15;10.40;99.90
6164;DHT22;3114;48.362;10.994;2023-03-09T09:25:41;10.50;99.90
6164;DHT22;3114;48.362;10.994;2023-03-09T09:28:08;10.60;99.90
6164;DHT22;3114;48.362;10.994;2023-03-09T09:30:35;10.70;99.90
6164;DHT22;3114;48.362;10.994;2023-03-09T09:33:03;10.60;99.90
6164;DHT22;3114;48.362;10.994;2023-03-09T09:35:31;10.60;99.90
6164;DHT22;3114;48.362;10.994;2023-03-09T09:37:58;10.60;99.90
6164;DHT22;3114;48.362;10.994;2023-03-09T09:40:26;10.60;99.90
6164;DHT22;3114;48.362;10.994;2023-03-09T09:42:53;10.70;99.90
6164;DHT22;3114;48.362;10.994;2023-03-09T09:45:27;10.80;99.90
6164;DHT22;3114;48.362;10.994;2023-03-09T09:47:55;10.90;99.90
6164;DHT22;3114;48.362;10.994;2023-03-09T09:50:32;10.70;99.90
6164;DHT22;3114;48.362;10.994;2023-03-09T09:53:04;10.90;99.90
6164;DHT22;3114;48.362;10.994;2023-03-09T09:55:34;11.00;99.90
6164;DHT22;3114;48.362;10.994;2023-03-09T09:58:11;11.00;99.90
6164;DHT22;3114;48.362;10.994;2023-03-09T10:00:42;10.90;99.90
6164;DHT22;3114;48.362;10.994;2023-03-09T10:03:15;10.80;99.90
6164;DHT22;3114;48.362;10.994;2023-03-09T10:05:49;10.70;99.90
6164;DHT22;3114;48.362;10.994;2023-03-09T10:08:33;10.70;99.90
6164;DHT22;3114;48.362;10.994;2023-03-09T10:11:06;10.80;99.90
6164;DHT22;3114;48.362;10.994;2023-03-09T10:13:37;10.70;99.90
6164;DHT22;3114;48.362;10.994;2023-03-09T10:16:11;10.70;99.90
6164;DHT22;3114;48.362;10.994;2023-03-09T10:18:44;11.00;99.90
6164;DHT22;3114;48.362;10.994;2023-03-09T10:21:19;11.00;99.90
6164;DHT22;3114;48.362;10.994;2023-03-09T10:23:48;11.00;99.90
6164;DHT22;3114;48.362;10.994;2023-03-09T10:26:29;11.10;99.90
6164;DHT22;3114;48.362;10.994;2023-03-09T10:29:03;11.10;99.90
6164;DHT22;3114;48.362;10.994;2023-03-09T10:31:37;11.20;99.90
6164;DHT22;3114;48.362;10.994;2023-03-09T10:34:12;11.20;99.90
6164;DHT22;3114;48.362;10.994;2023-03-09T10:36:48;11.30;99.90
6164;DHT22;3114;48.362;10.994;2023-03-09T10:39:19;11.40;99.90
6164;DHT22;3114;48.362;10.994;2023-03-09T10:41:46;11.50;99.90
6164;DHT22;3114;48.362;10.994;2023-03-09T10:44:16;11.40;99.90
6164;DHT22;3114;48.362;10.994;2023-03-09T10:46:58;11.50;99.90
6164;DHT22;3114;48.362;10.994;2023-03-09T10:49:26;11.50;99.90
6164;DHT22;3114;48.362;10.994;2023-03-09T10:51:58;11.60;99.90
6164;DHT22;3114;48.362;10.994;2023-03-09T10:54:29;11.50;99.90
6164;DHT22;3114;48.362;10.994;2023-03-09T10:56:57;11.50;99.90
6164;DHT22;3114;48.362;10.994;2023-03-09T10:59:26;11.40;99.90
6164;DHT22;3114;48.362;10.994;2023-03-09T11:01:55;11.50;99.90
6164;DHT22;3114;48.362;10.994;2023-03-09T11:04:36;11.30;99.90
6164;DHT22;3114;48.362;10.994;2023-03-09T11:07:16;11.20;99.90
6164;DHT22;3114;48.362;10.994;2023-03-09T11:09:47;11.20;99.90
6164;DHT22;3114;48.362;10.994;2023-03-09T11:12:21;11.20;99.90
6164;DHT22;3114;48.362;10.994;2023-03-09T11:14:50;11.20;99.90
6164;DHT22;3114;48.362;10.994;2023-03-09T11:17:31;11.30;99.90
6164;DHT22;3114;48.362;10.994;2023-03-09T11:20:29;11.60;99.90
6164;DHT22;3114;48.362;10.994;2023-03-09T11:23:17;11.70;99.90
6164;DHT22;3114;48.362;10.994;2023-03-09T11:26:11;12.10;99.90
6164;DHT22;3114;48.362;10.994;2023-03-09T11:28:45;12.10;99.90
6164;DHT22;3114;48.362;10.994;2023-03-09T11:31:15;11.90;99.90
6164;DHT22;3114;48.362;10.994;2023-03-09T11:33:45;11.80;99.90
6164;DHT22;3114;48.362;10.994;2023-03-09T11:36:16;11.60;99.90
6164;DHT22;3114;48.362;10.994;2023-03-09T11:38:46;11.60;99.90
6164;DHT22;3114;48.362;10.994;2023-03-09T11:41:18;11.60;99.90
6164;DHT22;3114;48.362;10.994;2023-03-09T11:43:50;11.70;99.90
6164;DHT22;3114;48.362;10.994;2023-03-09T11:46:20;11.80;99.90
6164;DHT22;3114;48.362;10.994;2023-03-09T11:48:49;11.90;99.90
6164;DHT22;3114;48.362;10.994;2023-03-09T11:51:21;11.90;99.90
6164;DHT22;3114;48.362;10.994;2023-03-09T11:53:57;12.60;99.90
6164;DHT22;3114;48.362;10.994;2023-03-09T11:56:28;13.60;99.90
6164;DHT22;3114;48.362;10.994;2023-03-09T11:59:00;14.00;99.90
6164;DHT22;3114;48.362;10.994;2023-03-09T12:01:34;13.30;99.90
6164;DHT22;3114;48.362;10.994;2023-03-09T12:04:06;13.30;99.90
6164;DHT22;3114;48.362;10.994;2023-03-09T12:06:38;13.30;99.90
6164;DHT22;3114;48.362;10.994;2023-03-09T12:09:16;13.20;99.90
6164;DHT22;3114;48.362;10.994;2023-03-09T12:11:50;12.70;99.90
6164;DHT22;3114;48.362;10.994;2023-03-09T12:14:20;12.40;99.90
6164;DHT22;3114;48.362;10.994;2023-03-09T12:16:50;12.40;99.90
6164;DHT22;3114;48.362;10.994;2023-03-09T12:19:20;12.30;99.90
6164;DHT22;3114;48.362;10.994;2023-03-09T12:21:49;12.40;99.90
6164;DHT22;3114;48.362;10.994;2023-03-09T12:24:32;12.50;99.90
6164;DHT22;3114;48.362;10.994;2023-03-09T12:27:05;12.60;99.90
6164;DHT22;3114;48.362;10.994;2023-03-09T12:29:39;12.70;99.90
6164;DHT22;3114;48.362;10.994;2023-03-09T12:32:34;12.90;99.90
6164;DHT22;3114;48.362;10.994;2023-03-09T12:35:03;13.70;99.90
6164;DHT22;3114;48.362;10.994;2023-03-09T12:40:37;15.80;99.90
6164;DHT22;3114;48.362;10.994;2023-03-09T12:43:33;18.40;99.90
6164;DHT22;3114;48.362;10.994;2023-03-09T12:49:19;20.80;99.90
6164;DHT22;3114;48.362;10.994;2023-03-09T12:51:58;18.00;99.90
6164;DHT22;3114;48.362;10.994;2023-03-09T12:54:30;18.50;99.90
6164;DHT22;3114;48.362;10.994;2023-03-09T12:57:09;19.30;99.90
6164;DHT22;3114;48.362;10.994;2023-03-09T12:59:37;18.40;99.90
6164;DHT22;3114;48.362;10.994;2023-03-09T13:02:26;17.10;99.90
6164;DHT22;3114;48.362;10.994;2023-03-09T13:05:21;17.40;99.90
6164;DHT22;3114;48.362;10.994;2023-03-09T13:07:53;17.30;99.90
6164;DHT22;3114;48.362;10.994;2023-03-09T13:10:24;16.50;99.90
6164;DHT22;3114;48.362;10.994;2023-03-09T13:16:38;15.40;99.90
6164;DHT22;3114;48.362;10.994;2023-03-09T13:22:29;20.60;99.90
6164;DHT22;3114;48.362;10.994;2023-03-09T13:25:27;18.90;99.90
6164;DHT22;3114;48.362;10.994;2023-03-09T13:28:09;17.30;99.90
6164;DHT22;3114;48.362;10.994;2023-03-09T13:30:42;15.60;99.90
6164;DHT22;3114;48.362;10.994;2023-03-09T13:33:15;16.80;99.90
6164;DHT22;3114;48.362;10.994;2023-03-09T13:35:49;19.30;99.90
6164;DHT22;3114;48.362;10.994;2023-03-09T13:38:20;18.40;99.90
6164;DHT22;3114;48.362;10.994;2023-03-09T13:40:50;17.80;99.90
6164;DHT22;3114;48.362;10.994;2023-03-09T13:43:21;16.50;99.90
6164;DHT22;3114;48.362;10.994;2023-03-09T13:46:04;16.10;99.90
6164;DHT22;3114;48.362;10.994;2023-03-09T13:48:34;15.30;99.90
6164;DHT22;3114;48.362;10.994;2023-03-09T13:51:03;14.80;99.90
6164;DHT22;3114;48.362;10.994;2023-03-09T13:53:30;14.30;99.90
6164;DHT22;3114;48.362;10.994;2023-03-09T13:55:58;15.50;99.90
6164;DHT22;3114;48.362;10.994;2023-03-09T13:58:28;16.80;99.90
6164;DHT22;3114;48.362;10.994;2023-03-09T14:00:57;16.10;99.90
6164;DHT22;3114;48.362;10.994;2023-03-09T14:03:26;15.20;99.90
6164;DHT22;3114;48.362;10.994;2023-03-09T14:06:00;14.70;99.90
6164;DHT22;3114;48.362;10.994;2023-03-09T14:08:32;14.10;99.90
6164;DHT22;3114;48.362;10.994;2023-03-09T14:11:04;14.10;99.90
6164;DHT22;3114;48.362;10.994;2023-03-09T14:13:33;14.50;99.90
6164;DHT22;3114;48.362;10.994;2023-03-09T14:16:04;14.70;99.90
6164;DHT22;3114;48.362;10.994;2023-03-09T14:18:40;14.60;99.90
6164;DHT22;3114;48.362;10.994;2023-03-09T14:21:21;14.20;99.90
6164;DHT22;3114;48.362;10.994;2023-03-09T14:23:49;13.90;99.90
6164;DHT22;3114;48.362;10.994;2023-03-09T14:26:25;13.90;99.90
6164;DHT22;3114;48.362;10.994;2023-03-09T14:29:05;13.70;99.90
6164;DHT22;3114;48.362;10.994;2023-03-09T14:31:33;13.90;99.90
6164;DHT22;3114;48.362;10.994;2023-03-09T14:34:02;14.30;99.90
6164;DHT22;3114;48.362;10.994;2023-03-09T14:36:33;14.70;99.90
6164;DHT22;3114;48.362;10.994;2023-03-09T14:39:03;15.10;99.90
6164;DHT22;3114;48.362;10.994;2023-03-09T14:41:36;15.80;99.90
6164;DHT22;3114;48.362;10.994;2023-03-09T14:44:05;15.20;99.90
6164;DHT22;3114;48.362;10.994;2023-03-09T14:46:32;14.80;99.90
6164;DHT22;3114;48.362;10.994;2023-03-09T14:48:59;15.10;99.90
6164;DHT22;3114;48.362;10.994;2023-03-09T14:51:29;15.00;99.90
6164;DHT22;3114;48.362;10.994;2023-03-09T14:53:59;14.90;99.90
6164;DHT22;3114;48.362;10.994;2023-03-09T14:56:28;15.00;99.90
6164;DHT22;3114;48.362;10.994;2023-03-09T14:58:56;14.80;99.90
6164;DHT22;3114;48.362;10.994;2023-03-09T15:01:27;14.50;99.90
6164;DHT22;3114;48.362;10.994;2023-03-09T15:03:55;14.10;99.90
6164;DHT22;3114;48.362;10.994;2023-03-09T15:06:24;13.90;99.90
6164;DHT22;3114;48.362;10.994;2023-03-09T15:08:51;13.80;99.90
6164;DHT22;3114;48.362;10.994;2023-03-09T15:11:19;13.60;99.90
6164;DHT22;3114;48.362;10.994;2023-03-09T15:13:47;13.60;99.90
6164;DHT22;3114;48.362;10.994;2023-03-09T15:16:14;13.60;99.90
6164;DHT22;3114;48.362;10.994;2023-03-09T15:18:42;13.50;99.90
6164;DHT22;3114;48.362;10.994;2023-03-09T15:21:09;13.50;99.90
6164;DHT22;3114;48.362;10.994;2023-03-09T15:23:36;13.40;99.90
6164;DHT22;3114;48.362;10.994;2023-03-09T15:26:04;13.50;99.90
6164;DHT22;3114;48.362;10.994;2023-03-09T15:28:31;13.70;99.90
6164;DHT22;3114;48.362;10.994;2023-03-09T15:30:58;13.60;99.90
6164;DHT22;3114;48.362;10.994;2023-03-09T15:33:26;13.60;99.90
6164;DHT22;3114;48.362;10.994;2023-03-09T15:35:54;13.70;99.90
6164;DHT22;3114;48.362;10.994;2023-03-09T15:38:21;13.70;99.90
6164;DHT22;3114;48.362;10.994;2023-03-09T15:40:48;13.50;99.90
6164;DHT22;3114;48.362;10.994;2023-03-09T15:43:14;13.40;99.90
6164;DHT22;3114;48.362;10.994;2023-03-09T15:45:42;13.40;99.90
6164;DHT22;3114;48.362;10.994;2023-03-09T15:48:09;13.40;99.90
6164;DHT22;3114;48.362;10.994;2023-03-09T15:50:36;13.30;99.90
6164;DHT22;3114;48.362;10.994;2023-03-09T15:53:06;13.30;99.90
6164;DHT22;3114;48.362;10.994;2023-03-09T15:55:34;13.30;99.90
6164;DHT22;3114;48.362;10.994;2023-03-09T15:58:01;13.40;99.90
6164;DHT22;3114;48.362;10.994;2023-03-09T16:00:28;13.40;99.90
6164;DHT22;3114;48.362;10.994;2023-03-09T16:03:00;13.40;99.90
6164;DHT22;3114;48.362;10.994;2023-03-09T16:05:27;13.30;99.90
6164;DHT22;3114;48.362;10.994;2023-03-09T16:07:54;13.30;99.90
6164;DHT22;3114;48.362;10.994;2023-03-09T16:10:22;13.40;99.90
6164;DHT22;3114;48.362;10.994;2023-03-09T16:12:49;13.30;99.90
6164;DHT22;3114;48.362;10.994;2023-03-09T16:15:16;13.20;99.90
6164;DHT22;3114;48.362;10.994;2023-03-09T16:17:43;13.10;99.90
6164;DHT22;3114;48.362;10.994;2023-03-09T16:20:12;13.10;99.90